Arminto, Wyoming
Current Conditions -  °F | °C
As of 10:53 AM on Monday 24 Nov 2014 (Local Time) from KCPR Reporting Station
Overcast Overcast  
Wind Chill: 22°   Ceiling: 4500
Heat Index: 33°   Visibility: 10mi
Dew Point: 17°   Wind: 17mph
Humidity: 52%   Direction: 330°NNW
Pressure: 30.02"   Gusts: 26mph
Location:  43.18°N, 107.26°W
Report Text: KCPR 241753Z 33015G23KT 10SM BKN045 OVC060 01/M08 A3002 RMK AO2 SLP192 T00061083 10006 21050 51029
Loading
Personal Weather Stations






























Interactive Weather Map New forecast layout! Learn more

10-Day Weather Forecast

Advertisements
Track Severe Weather on mobile